Shields, Kansas
Current Conditions -  °F | °C
As of 8:54 AM on Friday 24 Oct 2014 (Local Time) from KGCK Reporting Station
Clear Clear  
Wind Chill: 47°   Ceiling: Unl
Heat Index: 49°   Visibility: 4mi
Dew Point: 49°   Wind: 6mph
Humidity: 100%   Direction: 280°W
Pressure: 30.08"   Gusts: NA
Location:  38.4812°N, 100.393°W
Report Text: KGCK 241354Z 28005KT 4SM CLR 09/09 A3008 RMK AO2 RAB20E25 SLP174 P0000 T00940094
Loading
Personal Weather Stations






























Interactive Weather Map
Tropical Storm Tracking
New forecast layout! Learn more

10-Day Weather Forecast

Advertisements
Track Severe Weather on mobile